createdAt,value
2017-06-09T00:00:37.200Z,2.50
2017-06-09T00:03:04.727Z,2.53
2017-06-09T00:05:33.289Z,2.70
2017-06-09T00:08:00.876Z,2.50
2017-06-09T00:10:28.523Z,2.63
2017-06-09T00:12:56.822Z,2.53
2017-06-09T00:15:25.212Z,3.37
2017-06-09T00:17:52.762Z,2.10
2017-06-09T00:20:20.394Z,2.47
2017-06-09T00:22:47.966Z,2.93
2017-06-09T00:25:16.372Z,2.73
2017-06-09T00:27:43.899Z,2.60
2017-06-09T00:30:11.548Z,2.80
2017-06-09T00:32:39.163Z,2.53
2017-06-09T00:35:06.777Z,2.20
2017-06-09T00:37:34.348Z,3.00
2017-06-09T00:40:01.877Z,2.70
2017-06-09T00:42:29.593Z,2.80
2017-06-09T00:44:57.932Z,2.23
2017-06-09T00:47:25.445Z,2.93
2017-06-09T00:49:52.963Z,2.90
2017-06-09T00:52:20.667Z,2.93
2017-06-09T00:54:48.188Z,2.77
2017-06-09T00:57:15.712Z,2.53
2017-06-09T00:59:43.421Z,3.10
2017-06-09T01:02:11.700Z,3.40
2017-06-09T01:04:39.216Z,2.70
2017-06-09T01:07:06.810Z,2.80
2017-06-09T01:09:34.361Z,2.70
2017-06-09T01:12:01.877Z,3.20
2017-06-09T01:14:29.477Z,2.63
2017-06-09T01:16:56.992Z,2.87
2017-06-09T01:19:24.596Z,2.77
2017-06-09T01:21:52.165Z,3.30
2017-06-09T01:24:19.696Z,2.90
2017-06-09T01:26:47.263Z,2.90
2017-06-09T01:29:14.828Z,3.00
2017-06-09T01:31:42.576Z,3.10
2017-06-09T01:34:10.091Z,2.97
2017-06-09T01:36:38.514Z,2.50
2017-06-09T01:39:06.077Z,2.90
2017-06-09T01:41:33.741Z,3.13
2017-06-09T01:44:01.352Z,2.97
2017-06-09T01:46:28.880Z,2.70
2017-06-09T01:48:56.671Z,2.60
2017-06-09T01:51:24.233Z,3.17
2017-06-09T01:53:51.761Z,2.60
2017-06-09T01:56:19.335Z,2.73
2017-06-09T01:58:46.904Z,3.10
2017-06-09T02:01:14.416Z,2.77
2017-06-09T02:03:41.933Z,3.20
2017-06-09T02:06:09.604Z,3.10
2017-06-09T02:08:38.040Z,3.03
2017-06-09T02:11:05.558Z,3.10
2017-06-09T02:13:33.124Z,2.30
2017-06-09T02:16:01.606Z,2.73
2017-06-09T02:18:29.163Z,3.43
2017-06-09T02:20:57.493Z,3.20
2017-06-09T02:23:25.007Z,3.40
2017-06-09T02:25:52.524Z,2.90
2017-06-09T02:28:20.101Z,3.10
2017-06-09T02:30:47.623Z,3.40
2017-06-09T02:33:15.131Z,3.57
2017-06-09T02:35:43.809Z,2.97
2017-06-09T02:38:12.111Z,2.87
2017-06-09T02:40:39.750Z,2.63
2017-06-09T02:43:07.585Z,3.00
2017-06-09T02:45:35.276Z,2.60
2017-06-09T02:48:02.881Z,3.00
2017-06-09T02:50:30.469Z,3.40
2017-06-09T02:52:57.991Z,2.90
2017-06-09T02:55:25.607Z,3.40
2017-06-09T02:57:53.160Z,2.90
2017-06-09T03:00:20.698Z,3.40
2017-06-09T03:02:48.216Z,2.93
2017-06-09T03:05:15.933Z,3.43
2017-06-09T03:07:43.478Z,2.80
2017-06-09T03:10:11.312Z,3.33
2017-06-09T03:12:39.177Z,3.10
2017-06-09T03:15:06.750Z,2.73
2017-06-09T03:17:34.269Z,2.70
2017-06-09T03:20:01.851Z,2.90
2017-06-09T03:22:29.372Z,3.27
2017-06-09T03:24:56.888Z,3.20
2017-06-09T03:27:24.568Z,3.10
2017-06-09T03:29:52.080Z,3.40
2017-06-09T03:32:25.203Z,3.83
2017-06-09T03:34:52.723Z,3.50
2017-06-09T03:37:20.341Z,3.10
2017-06-09T03:39:47.987Z,3.63
2017-06-09T03:42:15.535Z,3.50
2017-06-09T03:44:43.064Z,3.10
2017-06-09T03:47:10.641Z,3.37
2017-06-09T03:49:38.344Z,3.67
2017-06-09T03:52:06.188Z,3.90
2017-06-09T03:54:33.760Z,3.47
2017-06-09T03:57:01.276Z,3.60
2017-06-09T03:59:28.800Z,3.63
2017-06-09T04:01:56.421Z,2.73
2017-06-09T04:04:23.988Z,3.30
2017-06-09T04:06:51.560Z,3.20
2017-06-09T04:09:19.120Z,3.00
2017-06-09T04:11:46.644Z,2.80
2017-06-09T04:14:14.284Z,2.80
2017-06-09T04:16:41.980Z,2.90
2017-06-09T04:19:09.500Z,2.40
2017-06-09T04:21:37.070Z,3.50
2017-06-09T04:24:04.648Z,2.80
2017-06-09T04:26:32.156Z,2.80
2017-06-09T04:28:59.668Z,3.00
2017-06-09T04:31:27.264Z,2.70
2017-06-09T04:33:54.780Z,2.73
2017-06-09T04:36:22.297Z,2.50
2017-06-09T04:38:49.849Z,3.30
2017-06-09T04:41:17.382Z,2.50
2017-06-09T04:43:44.904Z,2.37
2017-06-09T04:46:12.610Z,2.60
2017-06-09T04:48:40.136Z,4.47
2017-06-09T04:51:07.666Z,2.10
2017-06-09T04:53:35.233Z,1.93
2017-06-09T04:56:02.871Z,2.10
2017-06-09T04:58:30.404Z,2.27
2017-06-09T05:00:58.093Z,2.90
2017-06-09T05:03:25.648Z,2.43
2017-06-09T05:05:53.241Z,2.47
2017-06-09T05:08:20.931Z,1.90
2017-06-09T05:10:48.583Z,2.00
2017-06-09T05:13:16.092Z,1.77
2017-06-09T05:15:43.644Z,1.90
2017-06-09T05:18:11.196Z,1.67
2017-06-09T05:20:38.785Z,1.93
2017-06-09T05:23:06.329Z,1.83
2017-06-09T05:25:33.843Z,2.20
2017-06-09T05:28:01.546Z,1.77
2017-06-09T05:30:29.122Z,1.90
2017-06-09T05:33:02.179Z,1.70
2017-06-09T05:35:29.886Z,2.10
2017-06-09T05:37:57.390Z,2.20
2017-06-09T05:40:24.895Z,1.90
2017-06-09T05:42:52.439Z,1.90
2017-06-09T05:45:19.952Z,2.10
2017-06-09T05:47:47.510Z,2.00
2017-06-09T05:50:15.268Z,2.07
2017-06-09T05:52:42.850Z,1.60
2017-06-09T05:55:10.408Z,1.77
2017-06-09T05:57:37.908Z,1.77
2017-06-09T06:00:05.531Z,1.63
2017-06-09T06:02:33.164Z,1.83
2017-06-09T06:05:00.776Z,2.00
2017-06-09T06:07:28.325Z,1.90
2017-06-09T06:09:55.876Z,1.87
2017-06-09T06:12:23.620Z,1.80
2017-06-09T06:14:51.136Z,1.20
2017-06-09T06:17:18.731Z,1.73
2017-06-09T06:19:46.481Z,1.27
2017-06-09T06:22:14.028Z,1.40
2017-06-09T06:24:42.941Z,1.53
2017-06-09T06:27:10.532Z,1.43
2017-06-09T06:29:38.069Z,1.70
2017-06-09T06:32:05.798Z,1.60
2017-06-09T06:34:33.468Z,1.70
2017-06-09T06:37:01.032Z,1.63
2017-06-09T06:39:28.641Z,1.30
2017-06-09T06:41:56.236Z,1.40
2017-06-09T06:44:25.484Z,1.47
2017-06-09T06:46:53.410Z,1.40
2017-06-09T06:49:21.177Z,1.30
2017-06-09T06:51:49.361Z,1.30
2017-06-09T06:54:16.975Z,1.40
2017-06-09T06:56:45.678Z,1.23
2017-06-09T06:59:14.055Z,1.27
2017-06-09T07:01:44.178Z,1.47
2017-06-09T07:04:13.031Z,1.40
2017-06-09T07:06:40.878Z,1.43
2017-06-09T07:09:08.612Z,1.20
2017-06-09T07:11:36.306Z,1.30
2017-06-09T07:14:03.878Z,1.40
2017-06-09T07:16:31.488Z,1.13
2017-06-09T07:18:59.025Z,1.13
2017-06-09T07:21:29.111Z,1.27
2017-06-09T07:23:59.478Z,1.50
2017-06-09T07:26:27.189Z,1.60
2017-06-09T07:28:54.849Z,1.00
2017-06-09T07:31:22.383Z,1.00
2017-06-09T07:33:49.936Z,1.50
2017-06-09T07:36:17.452Z,1.33
2017-06-09T07:38:45.419Z,1.00
2017-06-09T07:41:13.678Z,1.20
2017-06-09T07:46:19.317Z,1.17
2017-06-09T07:48:51.693Z,1.27
2017-06-09T07:51:19.474Z,1.40
2017-06-09T07:53:47.028Z,1.47
2017-06-09T07:56:14.541Z,1.33
2017-06-09T07:58:42.057Z,1.40
2017-06-09T08:01:09.921Z,1.00
2017-06-09T08:03:37.812Z,1.20
2017-06-09T08:06:05.365Z,1.20
2017-06-09T08:08:32.985Z,1.40
2017-06-09T08:11:00.620Z,1.10
2017-06-09T08:13:28.132Z,1.10
2017-06-09T08:15:55.771Z,1.20
2017-06-09T08:18:23.408Z,1.00
2017-06-09T08:20:51.012Z,1.20
2017-06-09T08:23:18.633Z,1.40
2017-06-09T08:25:46.223Z,1.03
2017-06-09T08:28:13.736Z,1.20
2017-06-09T08:30:41.435Z,0.90
2017-06-09T08:33:09.049Z,1.03
2017-06-09T08:35:36.555Z,1.07
2017-06-09T08:38:04.289Z,1.07
2017-06-09T08:40:31.880Z,1.23
2017-06-09T08:42:59.473Z,1.30
2017-06-09T08:45:27.075Z,0.97
2017-06-09T08:47:54.640Z,0.90
2017-06-09T08:50:22.204Z,1.00
2017-06-09T08:52:49.974Z,1.20
2017-06-09T08:55:17.560Z,1.20
2017-06-09T08:57:45.168Z,1.13
2017-06-09T09:00:12.880Z,1.17
2017-06-09T09:02:40.489Z,1.00
2017-06-09T09:05:08.006Z,1.23
2017-06-09T09:07:35.524Z,1.20
2017-06-09T09:10:03.182Z,1.27
2017-06-09T09:12:30.699Z,1.23
2017-06-09T09:14:58.272Z,1.07
2017-06-09T09:17:25.914Z,1.00
2017-06-09T09:19:53.751Z,1.20
2017-06-09T09:22:21.281Z,1.03
2017-06-09T09:24:48.844Z,1.00
2017-06-09T09:27:16.434Z,1.33
2017-06-09T09:29:43.954Z,1.20
2017-06-09T09:32:11.512Z,1.20
2017-06-09T09:34:39.204Z,1.00
2017-06-09T09:37:06.744Z,0.90
2017-06-09T09:39:34.462Z,1.10
2017-06-09T09:42:02.193Z,1.20
2017-06-09T09:44:29.740Z,1.33
2017-06-09T09:46:57.787Z,1.33
2017-06-09T09:49:26.292Z,1.40
2017-06-09T09:51:53.938Z,1.27
2017-06-09T09:54:23.373Z,1.50
2017-06-09T09:56:51.313Z,1.57
2017-06-09T09:59:19.338Z,1.20
2017-06-09T10:01:46.909Z,1.33
2017-06-09T10:04:14.844Z,1.00
2017-06-09T10:06:42.485Z,1.20
2017-06-09T10:09:10.052Z,1.17
2017-06-09T10:11:37.568Z,1.40
2017-06-09T10:14:05.308Z,1.10
2017-06-09T10:16:32.877Z,1.20
2017-06-09T10:19:00.420Z,1.20
2017-06-09T10:21:27.944Z,1.13
2017-06-09T10:23:55.578Z,1.40
2017-06-09T10:26:23.150Z,1.13
2017-06-09T10:28:53.741Z,1.20
2017-06-09T10:31:21.312Z,1.37
2017-06-09T10:33:48.829Z,1.00
2017-06-09T10:36:16.575Z,1.00
2017-06-09T10:38:44.168Z,1.37
2017-06-09T10:41:11.694Z,1.20
2017-06-09T10:43:39.319Z,1.13
2017-06-09T10:46:06.882Z,1.10
2017-06-09T10:48:34.407Z,1.07
2017-06-09T10:51:01.929Z,1.03
2017-06-09T10:53:29.517Z,0.90
2017-06-09T10:55:57.025Z,1.10
2017-06-09T10:58:24.544Z,1.10
2017-06-09T11:00:52.109Z,1.10
2017-06-09T11:03:19.652Z,1.10
2017-06-09T11:05:47.170Z,1.40
2017-06-09T11:08:15.176Z,1.80
2017-06-09T11:10:42.693Z,1.40
2017-06-09T11:13:10.553Z,1.50
2017-06-09T11:15:38.131Z,2.10
2017-06-09T11:18:05.740Z,1.20
2017-06-09T11:20:33.265Z,1.70
2017-06-09T11:23:00.839Z,1.40
2017-06-09T11:25:28.382Z,1.40
2017-06-09T11:27:55.891Z,1.40
2017-06-09T11:30:23.467Z,1.90
2017-06-09T11:32:50.996Z,1.83
2017-06-09T11:35:18.623Z,2.47
2017-06-09T11:37:47.919Z,2.13
2017-06-09T11:40:15.432Z,1.83
2017-06-09T11:42:42.991Z,1.60
2017-06-09T11:45:10.507Z,1.53
2017-06-09T11:47:38.028Z,1.90
2017-06-09T11:50:05.606Z,1.53
2017-06-09T11:52:33.334Z,1.57
2017-06-09T11:55:00.888Z,1.80
2017-06-09T11:57:28.447Z,1.80
2017-06-09T11:59:55.980Z,1.50
2017-06-09T12:02:24.447Z,1.63
2017-06-09T12:04:52.220Z,1.40
2017-06-09T12:07:19.837Z,1.73
2017-06-09T12:09:47.425Z,1.50
2017-06-09T12:12:15.015Z,1.97
2017-06-09T12:14:42.654Z,1.70
2017-06-09T12:17:10.201Z,1.60
2017-06-09T12:19:37.875Z,1.77
2017-06-09T12:22:05.448Z,1.90
2017-06-09T12:24:33.037Z,1.70
2017-06-09T12:27:00.692Z,2.30
2017-06-09T12:29:28.294Z,1.80
2017-06-09T12:31:55.865Z,1.53
2017-06-09T12:34:23.440Z,1.50
2017-06-09T12:36:50.985Z,1.40
2017-06-09T12:39:18.517Z,1.80
2017-06-09T12:41:46.323Z,1.63
2017-06-09T12:44:13.936Z,1.27
2017-06-09T12:46:41.472Z,1.40
2017-06-09T12:49:09.062Z,1.40
2017-06-09T12:51:36.620Z,1.67
2017-06-09T12:54:04.157Z,1.80
2017-06-09T12:56:31.780Z,1.60
2017-06-09T12:58:59.590Z,1.73
2017-06-09T13:01:27.197Z,1.47
2017-06-09T13:03:54.873Z,1.57
2017-06-09T13:06:22.444Z,1.87
2017-06-09T13:08:50.395Z,1.80
2017-06-09T13:11:17.992Z,1.50
2017-06-09T13:13:45.711Z,1.70
2017-06-09T13:16:13.252Z,2.00
2017-06-09T13:18:40.844Z,1.53
2017-06-09T13:21:08.375Z,1.63
2017-06-09T13:23:35.900Z,1.63
2017-06-09T13:26:03.472Z,1.63
2017-06-09T13:28:31.048Z,1.47
2017-06-09T13:30:58.565Z,2.30
2017-06-09T13:33:26.130Z,1.57
2017-06-09T13:35:53.658Z,1.40
2017-06-09T13:38:21.195Z,1.80
2017-06-09T13:40:48.862Z,1.80
2017-06-09T13:43:16.397Z,1.80
2017-06-09T13:45:43.943Z,2.50
2017-06-09T13:48:11.517Z,1.87
2017-06-09T13:50:39.068Z,1.50
2017-06-09T13:53:06.726Z,1.70
2017-06-09T13:55:34.357Z,2.10
2017-06-09T13:58:10.525Z,1.90
2017-06-09T14:00:38.315Z,1.60
2017-06-09T14:03:05.869Z,2.07
2017-06-09T14:05:33.424Z,2.07
2017-06-09T14:08:01.001Z,1.50
2017-06-09T14:10:28.615Z,1.83
2017-06-09T14:12:56.153Z,2.00
2017-06-09T14:15:24.034Z,1.80
2017-06-09T14:17:51.598Z,2.03
2017-06-09T14:20:19.211Z,2.40
2017-06-09T14:22:46.827Z,4.60
2017-06-09T14:25:14.417Z,3.40
2017-06-09T14:27:41.990Z,2.80
2017-06-09T14:30:09.622Z,2.03
2017-06-09T14:32:37.213Z,2.20
2017-06-09T14:35:04.781Z,2.23
2017-06-09T14:37:32.479Z,2.17
2017-06-09T14:40:00.053Z,1.93
2017-06-09T14:42:27.649Z,1.77
2017-06-09T14:44:55.299Z,1.83
2017-06-09T14:47:22.930Z,1.97
2017-06-09T14:49:50.554Z,2.30
2017-06-09T14:52:18.206Z,2.40
2017-06-09T14:54:45.786Z,4.63
2017-06-09T14:57:13.332Z,2.23
2017-06-09T14:59:40.956Z,5.40
2017-06-09T15:02:08.542Z,2.30
2017-06-09T15:04:36.104Z,2.13
2017-06-09T15:07:03.706Z,2.30
2017-06-09T15:09:31.265Z,2.60
2017-06-09T15:11:58.822Z,2.03
2017-06-09T15:14:26.453Z,2.10
2017-06-09T15:16:54.010Z,2.10
2017-06-09T15:19:21.560Z,2.30
2017-06-09T15:21:49.137Z,2.00
2017-06-09T15:24:16.681Z,2.07
2017-06-09T15:26:44.235Z,2.23
2017-06-09T15:29:11.818Z,2.30
2017-06-09T15:31:39.366Z,2.17
2017-06-09T15:34:06.905Z,2.30
2017-06-09T15:36:34.486Z,2.30
2017-06-09T15:39:02.040Z,1.97
2017-06-09T15:41:29.565Z,2.13
2017-06-09T15:43:57.146Z,2.40
2017-06-09T15:46:24.688Z,2.00
2017-06-09T15:48:52.250Z,2.57
2017-06-09T15:51:19.843Z,2.20
2017-06-09T15:53:47.384Z,2.27
2017-06-09T15:56:14.895Z,2.40
2017-06-09T15:58:42.450Z,2.37
2017-06-09T16:01:09.968Z,1.90
2017-06-09T16:03:37.496Z,2.60
2017-06-09T16:06:05.071Z,2.50
2017-06-09T16:08:32.587Z,2.43
2017-06-09T16:11:00.236Z,2.30
2017-06-09T16:13:27.923Z,2.50
2017-06-09T16:15:55.520Z,2.40
2017-06-09T16:18:23.194Z,2.30
2017-06-09T16:20:50.787Z,2.50
2017-06-09T16:23:18.450Z,2.57
2017-06-09T16:25:46.011Z,2.30
2017-06-09T16:28:13.524Z,2.50
2017-06-09T16:30:41.037Z,2.57
2017-06-09T16:33:08.680Z,2.30
2017-06-09T16:35:36.214Z,2.67
2017-06-09T16:38:03.734Z,3.07
2017-06-09T16:40:31.300Z,2.33
2017-06-09T16:42:58.836Z,1.90
2017-06-09T16:45:26.369Z,2.40
2017-06-09T16:47:54.013Z,2.47
2017-06-09T16:50:21.581Z,2.60
2017-06-09T16:52:49.166Z,2.63
2017-06-09T16:55:16.760Z,2.60
2017-06-09T16:57:44.293Z,2.47
2017-06-09T17:00:11.824Z,2.37
2017-06-09T17:02:39.396Z,2.93
2017-06-09T17:05:06.949Z,2.70
2017-06-09T17:07:34.505Z,2.83
2017-06-09T17:10:02.083Z,2.57
2017-06-09T17:12:29.629Z,2.57
2017-06-09T17:14:57.161Z,2.57
2017-06-09T17:17:24.760Z,2.43
2017-06-09T17:19:52.296Z,2.73
2017-06-09T17:22:20.067Z,2.67
2017-06-09T17:24:47.663Z,3.30
2017-06-09T17:27:15.201Z,3.00
2017-06-09T17:29:42.734Z,2.70
2017-06-09T17:32:10.327Z,2.87
2017-06-09T17:34:38.697Z,3.27
2017-06-09T17:37:06.450Z,3.57
2017-06-09T17:39:35.070Z,3.93
2017-06-09T17:42:02.605Z,4.10
2017-06-09T17:44:30.128Z,3.60
2017-06-09T17:46:58.592Z,3.20
2017-06-09T17:49:26.171Z,3.70
2017-06-09T17:51:53.705Z,4.70
2017-06-09T17:54:25.882Z,4.27
2017-06-09T17:56:53.406Z,3.50
2017-06-09T17:59:20.928Z,4.13
2017-06-09T18:01:48.509Z,4.07
2017-06-09T18:04:16.033Z,4.30
2017-06-09T18:06:43.557Z,4.90
2017-06-09T18:09:11.125Z,4.37
2017-06-09T18:11:38.640Z,5.27
2017-06-09T18:14:06.164Z,4.20
2017-06-09T18:16:33.719Z,5.10
2017-06-09T18:19:01.272Z,4.97
2017-06-09T18:21:28.808Z,4.70
2017-06-09T18:23:56.396Z,4.60
2017-06-09T18:26:23.917Z,4.40
2017-06-09T18:28:51.437Z,4.73
2017-06-09T18:31:18.996Z,3.73
2017-06-09T18:33:46.517Z,3.90
2017-06-09T18:36:14.080Z,4.03
2017-06-09T18:38:41.598Z,3.37
2017-06-09T18:41:09.297Z,4.10
2017-06-09T18:43:36.861Z,4.70
2017-06-09T18:46:04.413Z,3.93
2017-06-09T18:48:31.932Z,3.20
2017-06-09T18:50:59.496Z,3.50
2017-06-09T18:53:27.018Z,3.20
2017-06-09T18:55:54.539Z,3.27
2017-06-09T18:58:22.125Z,3.33
2017-06-09T19:00:49.649Z,3.13
2017-06-09T19:03:17.172Z,3.63
2017-06-09T19:05:44.737Z,3.70
2017-06-09T19:08:12.252Z,3.33
2017-06-09T19:10:39.768Z,3.50
2017-06-09T19:13:07.592Z,3.63
2017-06-09T19:15:35.109Z,4.10
2017-06-09T19:18:02.623Z,3.30
2017-06-09T19:20:30.186Z,3.70
2017-06-09T19:22:57.704Z,3.10
2017-06-09T19:25:25.301Z,3.40
2017-06-09T19:27:52.831Z,3.17
2017-06-09T19:30:20.355Z,3.27
2017-06-09T19:32:47.925Z,3.13
2017-06-09T19:35:15.432Z,3.20
2017-06-09T19:37:42.951Z,2.70
2017-06-09T19:40:10.513Z,2.40
2017-06-09T19:42:38.045Z,2.63
2017-06-09T19:45:05.562Z,2.80
2017-06-09T19:47:33.127Z,3.27
2017-06-09T19:50:00.648Z,2.63
2017-06-09T19:52:28.166Z,2.50
2017-06-09T19:54:55.725Z,2.77
2017-06-09T19:57:23.252Z,2.90
2017-06-09T19:59:50.781Z,2.67
2017-06-09T20:02:18.364Z,2.63
2017-06-09T20:04:45.884Z,2.20
2017-06-09T20:07:13.395Z,2.70
2017-06-09T20:09:40.953Z,2.70
2017-06-09T20:12:08.477Z,2.80
2017-06-09T20:14:35.996Z,3.10
2017-06-09T20:17:03.557Z,3.00
2017-06-09T20:19:31.081Z,2.80
2017-06-09T20:21:58.601Z,2.93
2017-06-09T20:24:26.175Z,2.80
2017-06-09T20:26:53.689Z,3.13
2017-06-09T20:29:21.208Z,2.77
2017-06-09T20:31:48.779Z,3.00
2017-06-09T20:34:16.299Z,3.00
2017-06-09T20:36:43.824Z,2.93
2017-06-09T20:39:11.379Z,2.70
2017-06-09T20:41:38.895Z,3.50
2017-06-09T20:44:06.413Z,2.80
2017-06-09T20:46:33.999Z,3.03
2017-06-09T20:49:01.519Z,2.77
2017-06-09T20:51:29.028Z,3.30
2017-06-09T20:53:56.612Z,2.77
2017-06-09T20:56:24.139Z,3.13
2017-06-09T20:58:51.652Z,3.40
2017-06-09T21:01:19.250Z,3.33
2017-06-09T21:03:46.767Z,3.23
2017-06-09T21:06:14.301Z,3.30
2017-06-09T21:08:41.868Z,4.10
2017-06-09T21:11:09.401Z,4.17
2017-06-09T21:13:36.911Z,3.60
2017-06-09T21:16:04.459Z,3.50
2017-06-09T21:18:31.967Z,3.50
2017-06-09T21:20:59.540Z,4.00
2017-06-09T21:23:27.060Z,3.77
2017-06-09T21:25:54.571Z,4.20
2017-06-09T21:28:22.119Z,3.67
2017-06-09T21:30:49.637Z,3.63
2017-06-09T21:33:17.152Z,3.70
2017-06-09T21:35:44.716Z,4.10
2017-06-09T21:38:12.234Z,3.40
2017-06-09T21:40:39.749Z,3.97
2017-06-09T21:43:07.309Z,3.30
2017-06-09T21:45:34.831Z,3.50
2017-06-09T21:48:02.353Z,3.10
2017-06-09T21:50:29.930Z,3.20
2017-06-09T21:52:57.440Z,3.47
2017-06-09T21:55:24.947Z,3.70
2017-06-09T21:57:52.492Z,3.60
2017-06-09T22:00:20.010Z,3.70
2017-06-09T22:02:47.528Z,3.83
2017-06-09T22:05:15.101Z,3.50
2017-06-09T22:07:42.622Z,3.40
2017-06-09T22:10:10.144Z,2.93
2017-06-09T22:12:37.705Z,2.93
2017-06-09T22:15:05.219Z,3.73
2017-06-09T22:17:32.731Z,3.00
2017-06-09T22:20:00.286Z,3.13
2017-06-09T22:22:27.800Z,2.90
2017-06-09T22:24:55.309Z,2.97
2017-06-09T22:27:22.864Z,2.30
2017-06-09T22:29:50.372Z,2.30
2017-06-09T22:32:17.885Z,2.10
2017-06-09T22:34:45.447Z,2.40
2017-06-09T22:37:12.956Z,1.47
2017-06-09T22:39:40.467Z,1.43
2017-06-09T22:42:08.044Z,1.50
2017-06-09T22:44:35.572Z,1.60
2017-06-09T22:47:03.084Z,1.47
2017-06-09T22:49:30.650Z,1.53
2017-06-09T22:51:58.169Z,1.47
2017-06-09T22:54:25.684Z,1.43
2017-06-09T22:56:53.235Z,1.40
2017-06-09T22:59:20.771Z,1.13
2017-06-09T23:01:48.288Z,1.30
2017-06-09T23:04:15.843Z,1.80
2017-06-09T23:06:43.353Z,1.30
2017-06-09T23:09:10.873Z,1.77
2017-06-09T23:11:38.468Z,1.37
2017-06-09T23:14:05.983Z,1.63
2017-06-09T23:16:33.497Z,1.57
2017-06-09T23:19:01.100Z,1.30
2017-06-09T23:21:45.417Z,2.03
2017-06-09T23:24:12.980Z,1.57
2017-06-09T23:26:46.052Z,1.67
2017-06-09T23:29:13.620Z,1.50
2017-06-09T23:31:41.878Z,3.03
2017-06-09T23:34:09.405Z,1.57
2017-06-09T23:36:37.075Z,1.50
2017-06-09T23:39:04.615Z,1.70
2017-06-09T23:41:32.141Z,1.53
2017-06-09T23:43:59.696Z,1.20
2017-06-09T23:46:27.218Z,1.80
2017-06-09T23:48:54.732Z,1.90
2017-06-09T23:51:22.293Z,1.80
2017-06-09T23:53:49.817Z,1.50
2017-06-09T23:56:17.338Z,1.60
2017-06-09T23:58:44.896Z,3.00
